createdAt,value
2018-07-07T00:00:17.116Z,20.20
2018-07-07T00:02:44.728Z,20.20
2018-07-07T00:05:12.067Z,20.20
2018-07-07T00:07:40.291Z,20.20
2018-07-07T00:10:08.640Z,20.20
2018-07-07T00:12:36.173Z,20.20
2018-07-07T00:15:03.744Z,20.10
2018-07-07T00:17:31.168Z,20.10
2018-07-07T00:19:58.665Z,20.10
2018-07-07T00:22:26.082Z,20.00
2018-07-07T00:24:53.556Z,20.00
2018-07-07T00:27:21.089Z,20.00
2018-07-07T00:29:48.634Z,20.00
2018-07-07T00:32:16.148Z,20.00
2018-07-07T00:34:43.896Z,20.00
2018-07-07T00:37:11.378Z,20.00
2018-07-07T00:39:38.984Z,20.00
2018-07-07T00:42:06.436Z,19.90
2018-07-07T00:44:34.256Z,19.90
2018-07-07T00:47:01.837Z,19.90
2018-07-07T00:49:29.304Z,19.90
2018-07-07T00:51:56.755Z,20.00
2018-07-07T00:54:24.193Z,19.90
2018-07-07T00:56:51.655Z,19.90
2018-07-07T00:59:19.323Z,19.90
2018-07-07T01:01:46.851Z,20.00
2018-07-07T01:04:14.684Z,19.90
2018-07-07T01:06:43.179Z,19.90
2018-07-07T01:09:10.784Z,19.90
2018-07-07T01:11:38.206Z,19.80
2018-07-07T01:14:05.987Z,19.80
2018-07-07T01:16:33.515Z,19.80
2018-07-07T01:19:01.036Z,19.70
2018-07-07T01:21:28.458Z,19.70
2018-07-07T01:23:55.868Z,19.70
2018-07-07T01:26:23.439Z,19.70
2018-07-07T01:28:50.891Z,19.70
2018-07-07T01:31:18.311Z,19.70
2018-07-07T01:33:45.731Z,19.70
2018-07-07T01:36:13.149Z,19.60
2018-07-07T01:38:40.731Z,19.50
2018-07-07T01:41:08.284Z,19.50
2018-07-07T01:43:35.899Z,19.40
2018-07-07T01:46:03.358Z,19.40
2018-07-07T01:50:58.236Z,19.30
2018-07-07T01:53:25.727Z,19.20
2018-07-07T01:55:53.245Z,19.20
2018-07-07T01:58:20.703Z,19.10
2018-07-07T02:00:48.143Z,19.00
2018-07-07T02:03:15.583Z,19.00
2018-07-07T02:05:42.987Z,18.90
2018-07-07T02:08:10.408Z,18.90
2018-07-07T02:10:37.820Z,18.80
2018-07-07T02:13:05.288Z,18.70
2018-07-07T02:15:32.708Z,18.70
2018-07-07T02:18:00.316Z,18.60
2018-07-07T02:20:27.800Z,18.60
2018-07-07T02:22:55.217Z,18.60
2018-07-07T02:25:22.672Z,18.50
2018-07-07T02:30:17.597Z,18.50
2018-07-07T02:32:45.093Z,18.50
2018-07-07T02:35:12.508Z,18.70
2018-07-07T02:37:39.967Z,18.50
2018-07-07T02:40:07.518Z,18.50
2018-07-07T02:42:35.110Z,18.50
2018-07-07T02:45:02.588Z,18.40
2018-07-07T02:47:30.092Z,18.40
2018-07-07T02:49:57.663Z,18.40
2018-07-07T02:52:25.100Z,18.30
2018-07-07T02:54:52.531Z,18.30
2018-07-07T02:57:19.952Z,18.30
2018-07-07T02:59:47.407Z,18.30
2018-07-07T03:02:14.977Z,18.30
2018-07-07T03:04:42.434Z,18.20
2018-07-07T03:07:10.086Z,18.20
2018-07-07T03:09:37.538Z,18.20
2018-07-07T03:12:05.517Z,18.20
2018-07-07T03:14:33.005Z,18.10
2018-07-07T03:17:00.428Z,18.20
2018-07-07T03:19:27.875Z,18.20
2018-07-07T03:24:22.841Z,18.20
2018-07-07T03:26:50.635Z,18.20
2018-07-07T03:31:45.496Z,18.00
2018-07-07T03:34:12.920Z,18.10
2018-07-07T03:36:40.355Z,18.10
2018-07-07T03:39:08.419Z,18.10
2018-07-07T03:41:35.963Z,18.00
2018-07-07T03:46:30.922Z,18.10
2018-07-07T03:48:58.384Z,18.10
2018-07-07T03:51:25.799Z,18.10
2018-07-07T03:53:53.231Z,18.10
2018-07-07T03:56:21.220Z,18.10
2018-07-07T03:58:48.792Z,18.10
2018-07-07T04:01:16.175Z,18.10
2018-07-07T04:03:43.831Z,18.10
2018-07-07T04:06:11.412Z,18.20
2018-07-07T04:08:38.837Z,18.10
2018-07-07T04:11:06.503Z,18.10
2018-07-07T04:13:33.924Z,18.20
2018-07-07T04:16:01.407Z,18.20
2018-07-07T04:18:32.559Z,18.20
2018-07-07T04:21:00.936Z,18.20
2018-07-07T04:23:28.439Z,18.20
2018-07-07T04:25:55.878Z,18.20
2018-07-07T04:28:23.359Z,18.10
2018-07-07T04:30:50.899Z,18.20
2018-07-07T04:33:18.356Z,18.20
2018-07-07T04:35:46.247Z,18.30
2018-07-07T04:38:13.693Z,18.30
2018-07-07T04:40:41.130Z,18.20
2018-07-07T04:43:08.627Z,18.30
2018-07-07T04:45:36.109Z,18.30
2018-07-07T04:48:03.783Z,18.40
2018-07-07T04:50:31.471Z,18.50
2018-07-07T04:55:26.391Z,19.10
2018-07-07T04:57:53.823Z,19.90
2018-07-07T05:00:21.360Z,20.70
2018-07-07T05:02:48.795Z,21.30
2018-07-07T05:05:16.403Z,21.80
2018-07-07T05:07:44.080Z,22.20
2018-07-07T05:10:11.652Z,22.60
2018-07-07T05:12:39.120Z,22.90
2018-07-07T05:15:06.584Z,23.00
2018-07-07T05:17:34.122Z,22.90
2018-07-07T05:20:01.585Z,22.60
2018-07-07T05:22:29.000Z,22.10
2018-07-07T05:24:56.705Z,21.80
2018-07-07T05:27:24.131Z,21.90
2018-07-07T05:29:51.684Z,22.20
2018-07-07T05:32:19.119Z,22.50
2018-07-07T05:34:46.588Z,22.70
2018-07-07T05:37:14.064Z,22.80
2018-07-07T05:39:41.474Z,22.60
2018-07-07T05:42:08.862Z,22.20
2018-07-07T05:44:36.497Z,21.60
2018-07-07T05:47:04.052Z,21.30
2018-07-07T05:49:31.495Z,20.80
2018-07-07T05:51:58.943Z,20.40
2018-07-07T05:54:26.368Z,20.20
2018-07-07T05:56:53.830Z,20.00
2018-07-07T05:59:21.259Z,19.90
2018-07-07T06:01:48.696Z,19.80
2018-07-07T06:04:16.142Z,19.60
2018-07-07T06:06:43.640Z,19.60
2018-07-07T06:11:38.600Z,19.40
2018-07-07T06:14:06.812Z,19.40
2018-07-07T06:16:34.371Z,19.30
2018-07-07T06:19:01.809Z,19.20
2018-07-07T06:23:56.724Z,19.40
2018-07-07T06:26:24.182Z,19.40
2018-07-07T06:28:51.677Z,19.50
2018-07-07T06:31:19.224Z,19.50
2018-07-07T06:33:46.731Z,19.60
2018-07-07T06:36:15.000Z,19.60
2018-07-07T06:38:42.716Z,19.70
2018-07-07T06:41:10.136Z,19.70
2018-07-07T06:43:37.641Z,19.80
2018-07-07T06:46:05.194Z,19.80
2018-07-07T06:48:32.619Z,19.80
2018-07-07T06:53:27.696Z,19.80
2018-07-07T06:55:55.135Z,19.80
2018-07-07T06:58:23.314Z,19.90
2018-07-07T07:00:54.388Z,20.00
2018-07-07T07:03:21.653Z,20.10
2018-07-07T07:05:48.955Z,20.20
2018-07-07T07:08:16.204Z,20.30
2018-07-07T07:10:43.447Z,20.30
2018-07-07T07:13:10.667Z,20.40
2018-07-07T07:15:42.643Z,20.50
2018-07-07T07:18:09.899Z,20.60
2018-07-07T07:20:37.151Z,20.60
2018-07-07T07:23:04.426Z,20.60
2018-07-07T07:25:31.759Z,20.60
2018-07-07T07:27:59.027Z,20.60
2018-07-07T07:30:31.275Z,20.70
2018-07-07T07:32:58.570Z,20.70
2018-07-07T07:35:25.756Z,20.70
2018-07-07T07:37:53.022Z,20.90
2018-07-07T07:40:20.380Z,21.00
2018-07-07T07:45:14.968Z,21.10
2018-07-07T07:47:45.147Z,21.10
2018-07-07T07:50:12.363Z,20.90
2018-07-07T07:52:39.656Z,21.10
2018-07-07T07:55:06.895Z,21.10
2018-07-07T07:57:34.140Z,21.30
2018-07-07T08:00:01.444Z,21.40
2018-07-07T08:02:32.744Z,21.40
2018-07-07T08:04:59.979Z,21.60
2018-07-07T08:07:27.603Z,21.50
2018-07-07T08:09:54.857Z,21.40
2018-07-07T08:12:22.313Z,21.20
2018-07-07T08:14:49.539Z,21.30
2018-07-07T08:17:18.972Z,21.50
2018-07-07T08:19:46.183Z,21.50
2018-07-07T08:22:13.416Z,21.50
2018-07-07T08:24:40.616Z,21.40
2018-07-07T08:27:07.815Z,21.50
2018-07-07T08:29:35.151Z,21.50
2018-07-07T08:32:04.354Z,21.40
2018-07-07T08:34:31.641Z,21.50
2018-07-07T08:36:58.892Z,21.60
2018-07-07T08:39:26.115Z,21.70
2018-07-07T08:41:53.398Z,21.70
2018-07-07T08:44:20.586Z,21.70
2018-07-07T08:46:47.807Z,21.90
2018-07-07T08:49:15.030Z,21.90
2018-07-07T08:51:42.373Z,21.80
2018-07-07T08:54:09.607Z,21.80
2018-07-07T08:56:36.953Z,21.90
2018-07-07T08:59:04.177Z,22.10
2018-07-07T09:01:31.397Z,22.10
2018-07-07T09:03:58.674Z,22.30
2018-07-07T09:06:27.218Z,22.30
2018-07-07T09:08:54.447Z,22.50
2018-07-07T09:11:21.679Z,22.50
2018-07-07T09:13:48.903Z,22.50
2018-07-07T09:16:16.123Z,22.60
2018-07-07T09:18:43.350Z,22.70
2018-07-07T09:21:15.342Z,22.70
2018-07-07T09:23:42.625Z,22.80
2018-07-07T09:26:10.075Z,22.80
2018-07-07T09:28:37.300Z,22.80
2018-07-07T09:31:04.888Z,22.90
2018-07-07T09:33:32.356Z,22.90
2018-07-07T09:36:01.091Z,23.00
2018-07-07T09:38:28.347Z,23.00
2018-07-07T09:40:55.556Z,23.10
2018-07-07T09:43:22.783Z,23.20
2018-07-07T09:45:50.171Z,23.30
2018-07-07T09:48:18.216Z,23.40
2018-07-07T09:53:14.414Z,23.80
2018-07-07T09:55:41.981Z,23.90
2018-07-07T09:58:09.701Z,23.90
2018-07-07T10:00:41.116Z,23.90
2018-07-07T10:03:11.965Z,24.00
2018-07-07T10:05:40.056Z,24.20
2018-07-07T10:08:08.349Z,24.30
2018-07-07T10:10:35.964Z,24.50
2018-07-07T10:13:05.596Z,24.80
2018-07-07T10:15:37.016Z,25.20
2018-07-07T10:18:04.804Z,25.50
2018-07-07T10:20:32.068Z,25.60
2018-07-07T10:22:59.311Z,25.90
2018-07-07T10:25:26.579Z,26.10
2018-07-07T10:27:56.769Z,26.40
2018-07-07T10:30:25.773Z,26.70
2018-07-07T10:32:52.976Z,27.00
2018-07-07T10:35:20.286Z,27.30
2018-07-07T10:37:47.495Z,27.40
2018-07-07T10:40:14.716Z,27.70
2018-07-07T10:42:42.315Z,27.70
2018-07-07T10:45:13.715Z,27.80
2018-07-07T10:47:41.419Z,27.90
2018-07-07T10:50:09.101Z,28.00
2018-07-07T10:52:36.757Z,28.30
2018-07-07T10:55:04.634Z,28.50
2018-07-07T10:57:32.036Z,28.60
2018-07-07T11:00:02.498Z,28.50
2018-07-07T11:02:29.758Z,28.40
2018-07-07T11:04:56.992Z,28.60
2018-07-07T11:07:24.206Z,28.60
2018-07-07T11:09:51.416Z,28.70
2018-07-07T11:12:18.734Z,28.80
2018-07-07T11:14:50.443Z,28.80
2018-07-07T11:17:17.823Z,29.00
2018-07-07T11:19:45.096Z,29.10
2018-07-07T11:22:12.311Z,29.00
2018-07-07T11:24:39.526Z,29.00
2018-07-07T11:27:06.764Z,29.10
2018-07-07T11:29:36.049Z,29.10
2018-07-07T11:32:03.339Z,29.30
2018-07-07T11:34:30.531Z,29.50
2018-07-07T11:36:57.807Z,29.50
2018-07-07T11:39:25.022Z,29.50
2018-07-07T11:41:52.239Z,29.60
2018-07-07T11:44:22.808Z,29.90
2018-07-07T11:46:51.264Z,29.80
2018-07-07T11:49:18.603Z,29.80
2018-07-07T11:51:45.822Z,29.70
2018-07-07T11:54:13.097Z,29.40
2018-07-07T11:56:40.339Z,29.20
2018-07-07T11:59:10.191Z,29.30
2018-07-07T12:01:37.436Z,29.20
2018-07-07T12:04:04.729Z,29.00
2018-07-07T12:06:31.963Z,28.70
2018-07-07T12:08:59.254Z,28.70
2018-07-07T12:11:26.557Z,28.60
2018-07-07T12:13:53.711Z,28.60
2018-07-07T12:16:23.863Z,28.80
2018-07-07T12:18:51.124Z,28.90
2018-07-07T12:21:18.328Z,28.80
2018-07-07T12:23:45.558Z,28.80
2018-07-07T12:26:12.797Z,28.90
2018-07-07T12:28:40.010Z,29.10
2018-07-07T12:31:12.391Z,29.40
2018-07-07T12:33:39.703Z,29.70
2018-07-07T12:36:06.987Z,29.80
2018-07-07T12:38:34.242Z,29.70
2018-07-07T12:41:01.532Z,29.80
2018-07-07T12:43:28.867Z,29.80
2018-07-07T12:45:56.154Z,29.80
2018-07-07T12:48:25.991Z,29.50
2018-07-07T12:50:53.196Z,29.10
2018-07-07T12:53:20.483Z,28.80
2018-07-07T12:55:47.716Z,28.70
2018-07-07T12:58:14.961Z,29.00
2018-07-07T13:00:42.195Z,29.10
2018-07-07T13:03:09.505Z,28.80
2018-07-07T13:05:36.728Z,28.70
2018-07-07T13:08:03.968Z,28.60
2018-07-07T13:10:31.191Z,28.70
2018-07-07T13:12:58.434Z,28.90
2018-07-07T13:15:25.656Z,29.20
2018-07-07T13:17:52.875Z,29.40
2018-07-07T13:20:20.179Z,29.30
2018-07-07T13:22:47.395Z,29.10
2018-07-07T13:25:14.688Z,29.00
2018-07-07T13:27:42.024Z,29.20
2018-07-07T13:30:09.261Z,29.30
2018-07-07T13:32:36.513Z,29.50
2018-07-07T13:35:03.719Z,29.60
2018-07-07T13:37:30.935Z,29.50
2018-07-07T13:39:58.135Z,29.30
2018-07-07T13:42:25.367Z,29.20
2018-07-07T13:44:52.576Z,29.20
2018-07-07T13:47:19.908Z,29.30
2018-07-07T13:49:47.107Z,29.40
2018-07-07T13:52:14.331Z,29.60
2018-07-07T13:54:41.719Z,29.70
2018-07-07T13:57:09.003Z,29.60
2018-07-07T13:59:36.319Z,29.40
2018-07-07T14:02:03.543Z,29.20
2018-07-07T14:04:30.764Z,28.90
2018-07-07T14:06:57.982Z,28.70
2018-07-07T14:09:25.249Z,28.70
2018-07-07T14:11:52.474Z,28.80
2018-07-07T14:14:19.986Z,29.00
2018-07-07T14:16:47.428Z,28.90
2018-07-07T14:19:15.040Z,28.60
2018-07-07T14:21:42.537Z,28.30
2018-07-07T14:24:09.968Z,28.20
2018-07-07T14:26:37.524Z,28.20
2018-07-07T14:29:05.158Z,28.10
2018-07-07T14:31:32.607Z,28.10
2018-07-07T14:34:00.059Z,28.00
2018-07-07T14:36:27.454Z,27.80
2018-07-07T14:38:54.999Z,28.10
2018-07-07T14:41:22.939Z,28.40
2018-07-07T14:43:59.615Z,28.70
2018-07-07T14:46:27.266Z,29.00
2018-07-07T14:48:54.717Z,29.00
2018-07-07T14:51:22.148Z,29.00
2018-07-07T14:53:49.667Z,28.80
2018-07-07T14:56:18.603Z,28.90
2018-07-07T14:58:46.259Z,28.90
2018-07-07T15:01:13.724Z,28.80
2018-07-07T15:03:41.510Z,29.00
2018-07-07T15:06:09.040Z,29.00
2018-07-07T15:08:36.535Z,28.90
2018-07-07T15:11:04.267Z,28.90
2018-07-07T15:13:32.079Z,28.90
2018-07-07T15:15:59.535Z,28.80
2018-07-07T15:18:26.981Z,28.90
2018-07-07T15:20:54.700Z,28.90
2018-07-07T15:23:22.427Z,28.90
2018-07-07T15:25:49.868Z,28.90
2018-07-07T15:28:17.329Z,28.70
2018-07-07T15:30:44.939Z,28.40
2018-07-07T15:35:39.784Z,28.20
2018-07-07T15:38:07.217Z,28.30
2018-07-07T15:40:34.675Z,28.40
2018-07-07T15:43:02.112Z,28.60
2018-07-07T15:45:29.622Z,28.60
2018-07-07T15:47:57.027Z,28.40
2018-07-07T15:50:24.475Z,28.20
2018-07-07T15:52:51.935Z,27.90
2018-07-07T15:55:19.430Z,27.60
2018-07-07T15:57:46.856Z,27.50
2018-07-07T16:00:14.323Z,27.50
2018-07-07T16:02:41.763Z,27.50
2018-07-07T16:05:09.222Z,27.60
2018-07-07T16:07:36.684Z,27.30
2018-07-07T16:10:04.297Z,27.20
2018-07-07T16:12:31.736Z,27.10
2018-07-07T16:14:59.463Z,27.10
2018-07-07T16:17:26.919Z,27.00
2018-07-07T16:19:54.506Z,27.10
2018-07-07T16:22:21.960Z,27.00
2018-07-07T16:24:49.372Z,26.90
2018-07-07T16:27:16.793Z,27.00
2018-07-07T16:29:44.203Z,27.10
2018-07-07T16:32:11.631Z,27.10
2018-07-07T16:34:39.221Z,27.00
2018-07-07T16:37:06.679Z,27.10
2018-07-07T16:39:34.215Z,27.00
2018-07-07T16:42:01.684Z,27.00
2018-07-07T16:46:56.732Z,26.90
2018-07-07T16:49:24.199Z,26.80
2018-07-07T16:51:51.681Z,26.70
2018-07-07T16:54:20.191Z,26.80
2018-07-07T16:56:47.671Z,26.80
2018-07-07T16:59:15.575Z,26.90
2018-07-07T17:01:43.051Z,26.90
2018-07-07T17:04:10.495Z,27.00
2018-07-07T17:06:38.065Z,27.00
2018-07-07T17:09:06.227Z,27.00
2018-07-07T17:11:33.766Z,26.90
2018-07-07T17:14:01.491Z,26.80
2018-07-07T17:16:29.325Z,26.70
2018-07-07T17:18:56.747Z,26.50
2018-07-07T17:21:24.227Z,26.40
2018-07-07T17:23:51.684Z,26.30
2018-07-07T17:26:19.544Z,26.30
2018-07-07T17:28:47.034Z,26.30
2018-07-07T17:31:14.488Z,26.30
2018-07-07T17:33:41.973Z,26.40
2018-07-07T17:36:09.594Z,26.30
2018-07-07T17:41:05.160Z,26.40
2018-07-07T17:43:32.656Z,26.30
2018-07-07T17:46:00.127Z,26.30
2018-07-07T17:48:27.700Z,26.20
2018-07-07T17:50:55.181Z,26.10
2018-07-07T17:53:22.670Z,26.20
2018-07-07T17:55:50.419Z,26.10
2018-07-07T17:58:18.299Z,26.10
2018-07-07T18:00:45.739Z,25.90
2018-07-07T18:03:13.195Z,25.90
2018-07-07T18:05:40.956Z,25.80
2018-07-07T18:08:08.398Z,25.80
2018-07-07T18:10:36.054Z,25.80
2018-07-07T18:13:03.704Z,25.70
2018-07-07T18:15:31.100Z,25.70
2018-07-07T18:17:58.633Z,25.70
2018-07-07T18:20:26.177Z,25.60
2018-07-07T18:22:53.647Z,25.50
2018-07-07T18:25:21.495Z,25.40
2018-07-07T18:27:48.899Z,25.50
2018-07-07T18:30:16.328Z,25.50
2018-07-07T18:32:43.730Z,25.50
2018-07-07T18:35:11.171Z,25.50
2018-07-07T18:37:38.861Z,25.40
2018-07-07T18:40:06.495Z,25.30
2018-07-07T18:42:33.947Z,25.20
2018-07-07T18:45:01.553Z,25.10
2018-07-07T18:47:28.998Z,25.00
2018-07-07T18:49:58.977Z,24.90
2018-07-07T18:52:26.411Z,24.80
2018-07-07T18:54:53.920Z,24.70
2018-07-07T18:57:21.341Z,24.70
2018-07-07T18:59:48.880Z,24.70
2018-07-07T19:02:16.386Z,24.60
2018-07-07T19:04:43.868Z,24.60
2018-07-07T19:09:42.034Z,24.30
2018-07-07T19:12:09.524Z,24.30
2018-07-07T19:14:37.054Z,24.20
2018-07-07T19:17:04.597Z,24.20
2018-07-07T19:19:32.076Z,24.10
2018-07-07T19:24:59.236Z,24.10
2018-07-07T19:29:54.205Z,24.00
2018-07-07T19:32:27.356Z,24.00
2018-07-07T19:35:00.333Z,23.90
2018-07-07T19:39:55.287Z,23.80
2018-07-07T19:42:22.771Z,23.70
2018-07-07T19:44:50.224Z,23.70
2018-07-07T19:47:17.653Z,23.60
2018-07-07T19:49:45.088Z,23.60
2018-07-07T19:52:12.501Z,23.50
2018-07-07T19:54:39.931Z,23.50
2018-07-07T19:57:07.371Z,23.40
2018-07-07T19:59:34.840Z,23.40
2018-07-07T20:02:02.411Z,23.30
2018-07-07T20:04:29.816Z,23.20
2018-07-07T20:06:57.276Z,23.10
2018-07-07T20:09:24.699Z,23.10
2018-07-07T20:11:52.193Z,23.00
2018-07-07T20:14:22.563Z,22.90
2018-07-07T20:17:01.288Z,22.80
2018-07-07T20:20:42.717Z,22.70
2018-07-07T20:23:17.946Z,22.60
2018-07-07T20:25:51.020Z,22.50
2018-07-07T20:28:24.486Z,22.30
2018-07-07T20:33:23.984Z,22.20
2018-07-07T20:38:18.910Z,21.90
2018-07-07T20:43:13.863Z,21.80
2018-07-07T20:45:41.279Z,21.80
2018-07-07T20:50:36.129Z,21.70
2018-07-07T20:53:03.572Z,21.70
2018-07-07T20:55:30.995Z,21.60
2018-07-07T21:00:26.895Z,21.50
2018-07-07T21:02:54.324Z,21.40
2018-07-07T21:05:21.811Z,21.40
2018-07-07T21:07:49.227Z,21.30
2018-07-07T21:10:16.739Z,21.30
2018-07-07T21:12:44.164Z,21.20
2018-07-07T21:15:11.600Z,21.20
2018-07-07T21:17:39.035Z,21.10
2018-07-07T21:20:06.449Z,21.10
2018-07-07T21:22:33.871Z,21.00
2018-07-07T21:25:01.267Z,21.00
2018-07-07T21:27:28.683Z,21.00
2018-07-07T21:29:56.172Z,20.80
2018-07-07T21:32:23.592Z,20.80
2018-07-07T21:34:51.003Z,20.70
2018-07-07T21:37:18.444Z,20.70
2018-07-07T21:39:45.856Z,20.60
2018-07-07T21:42:13.359Z,20.50
2018-07-07T21:44:40.772Z,20.50
2018-07-07T21:47:08.172Z,20.50
2018-07-07T21:49:35.683Z,20.50
2018-07-07T21:52:03.123Z,20.40
2018-07-07T21:54:30.515Z,20.40
2018-07-07T21:56:57.959Z,20.30
2018-07-07T21:59:25.403Z,20.30
2018-07-07T22:04:35.257Z,20.20
2018-07-07T22:07:12.315Z,20.10
2018-07-07T22:09:40.007Z,20.10
2018-07-07T22:12:07.452Z,20.00
2018-07-07T22:14:34.916Z,19.90
2018-07-07T22:17:02.139Z,19.90
2018-07-07T22:19:29.369Z,19.90
2018-07-07T22:21:58.783Z,19.80
2018-07-07T22:24:26.012Z,19.70
2018-07-07T22:26:55.065Z,19.70
2018-07-07T22:29:22.264Z,19.60
2018-07-07T22:31:49.544Z,19.60
2018-07-07T22:34:16.759Z,19.60
2018-07-07T22:36:43.993Z,19.50
2018-07-07T22:39:11.223Z,19.40
2018-07-07T22:42:02.347Z,19.40
2018-07-07T22:44:29.742Z,19.30
2018-07-07T22:46:57.228Z,19.30
2018-07-07T22:49:25.379Z,19.20
2018-07-07T22:51:52.899Z,19.10
2018-07-07T22:54:20.111Z,19.10
2018-07-07T22:56:47.331Z,19.00
2018-07-07T22:59:14.662Z,18.90
2018-07-07T23:01:41.999Z,18.80
2018-07-07T23:04:09.322Z,18.70
2018-07-07T23:06:38.420Z,18.70
2018-07-07T23:09:06.823Z,18.60
2018-07-07T23:11:34.056Z,18.60
2018-07-07T23:14:01.416Z,18.60
2018-07-07T23:16:28.967Z,18.60
2018-07-07T23:18:56.191Z,18.60
2018-07-07T23:23:50.833Z,18.40
2018-07-07T23:26:18.107Z,18.40
2018-07-07T23:28:45.497Z,18.40
2018-07-07T23:31:12.787Z,18.40
2018-07-07T23:33:40.052Z,18.30
2018-07-07T23:36:07.329Z,18.20
2018-07-07T23:38:34.562Z,18.10
2018-07-07T23:41:01.853Z,18.10
2018-07-07T23:43:29.316Z,18.00
2018-07-07T23:45:56.666Z,17.90
2018-07-07T23:48:23.889Z,17.90
2018-07-07T23:50:51.503Z,17.90
2018-07-07T23:53:18.730Z,17.80
2018-07-07T23:55:45.933Z,17.70
2018-07-07T23:58:13.175Z,17.70
